Time;durP1;ratioP1;P1;durP2;ratioP2;P2;SDS_P1;SDS_P2;PMS_P1;PMS_P2;Temp;Humidity;BMP_temperature;BMP_pressure;BME280_temperature;BME280_humidity;BME280_pressure;Samples;Min_cycle;Max_cycle;Signal;HPM_P1;HPM_P2
2022/08/13 00:01:56;;;;;;;6.55;3.72;;;20.60;99.90;;;;;;5075492;28;20465;-75
2022/08/13 00:04:24;;;;;;;8.65;4.05;;;;;;;;;;5070996;28;20415;-75
2022/08/13 00:07:06;;;;;;;6.50;3.55;;;;;;;;;;5055320;28;20473;-75
2022/08/13 00:09:33;;;;;;;7.20;3.78;;;20.60;99.90;;;;;;5070637;28;20424;-75
2022/08/13 00:14:46;;;;;;;9.80;3.75;;;;;;;;;;5071393;28;20806;-75
2022/08/13 00:17:13;;;;;;;8.75;3.97;;;20.60;99.90;;;;;;5070998;28;20481;-75
2022/08/13 00:19:40;;;;;;;7.60;4.35;;;20.20;99.90;;;;;;5037343;28;20856;-75
2022/08/13 00:22:10;;;;;;;8.30;3.92;;;20.40;99.90;;;;;;5069333;28;20510;-75
2022/08/13 00:24:38;;;;;;;6.68;3.83;;;20.20;99.90;;;;;;5082113;28;20418;-75
2022/08/13 00:27:05;;;;;;;8.55;4.03;;;20.30;99.90;;;;;;5079910;28;20425;-75
2022/08/13 00:29:30;;;;;;;8.90;4.05;;;20.20;99.90;;;;;;5061174;28;20846;-76
2022/08/13 00:31:57;;;;;;;9.25;4.05;;;;;;;;;;5044873;28;20457;-76
2022/08/13 00:34:23;;;;;;;7.63;4.10;;;20.40;99.90;;;;;;5069846;28;20427;-76
2022/08/13 00:36:49;;;;;;;8.15;3.88;;;20.00;99.90;;;;;;5069864;28;20915;-76
2022/08/13 00:39:15;;;;;;;7.95;4.32;;;20.20;99.90;;;;;;5068522;28;20468;-76
2022/08/13 00:41:45;;;;;;;6.45;4.35;;;;;;;;;;5071086;28;20908;-76
2022/08/13 00:44:14;;;;;;;7.10;4.00;;;20.10;99.90;;;;;;5070867;28;20514;-76
2022/08/13 00:46:41;;;;;;;8.52;4.20;;;;;;;;;;5071314;28;20416;-76
2022/08/13 00:49:08;;;;;;;7.07;4.57;;;20.30;99.90;;;;;;5066757;28;20485;-76
2022/08/13 00:51:36;;;;;;;7.07;4.80;;;20.00;99.90;;;;;;5071583;28;20749;-76
2022/08/13 00:54:05;;;;;;;9.33;4.70;;;20.30;99.90;;;;;;5071263;28;20419;-76
2022/08/13 00:56:35;;;;;;;8.63;4.70;;;20.20;99.90;;;;;;5069534;28;20419;-76
2022/08/13 00:59:11;;;;;;;6.13;4.20;;;19.70;99.90;;;;;;5070985;28;20761;-75
2022/08/13 01:01:43;;;;;;;7.30;4.60;;;19.80;99.90;;;;;;5070289;28;20461;-75
2022/08/13 01:04:09;;;;;;;7.15;4.55;;;19.90;99.90;;;;;;5068847;28;20415;-74
2022/08/13 01:06:35;;;;;;;8.38;4.43;;;;;;;;;;5070848;28;20419;-74
2022/08/13 01:09:02;;;;;;;7.18;4.80;;;;;;;;;;5070134;28;20502;-74
2022/08/13 01:11:28;;;;;;;7.38;4.88;;;;;;;;;;5073770;28;20425;-75
2022/08/13 01:13:55;;;;;;;8.60;5.07;;;;;;;;;;5069479;28;20420;-75
2022/08/13 01:16:21;;;;;;;8.60;5.10;;;19.70;99.90;;;;;;5070608;28;20463;-75
2022/08/13 01:18:50;;;;;;;10.05;4.97;;;19.40;99.90;;;;;;5066630;28;20589;-74
2022/08/13 01:21:18;;;;;;;9.18;5.00;;;19.30;99.90;;;;;;5071439;28;20423;-75
2022/08/13 01:23:48;;;;;;;7.80;5.18;;;19.50;99.90;;;;;;5086840;28;20420;-74
2022/08/13 01:26:16;;;;;;;7.20;5.00;;;19.50;99.90;;;;;;5069110;28;20868;-74
2022/08/13 01:28:43;;;;;;;7.78;5.45;;;;;;;;;;5077293;28;20494;-74
2022/08/13 01:31:10;;;;;;;9.32;5.10;;;19.20;99.90;;;;;;5068911;28;20843;-74
2022/08/13 01:33:36;;;;;;;7.70;4.70;;;19.10;99.90;;;;;;5068573;28;20468;-74
2022/08/13 01:36:09;;;;;;;9.27;5.20;;;19.40;99.90;;;;;;5086867;28;20435;-75
2022/08/13 01:38:36;;;;;;;8.98;5.53;;;;;;;;;;5068297;28;20795;-74
2022/08/13 01:41:04;;;;;;;8.43;5.40;;;19.00;99.90;;;;;;5065564;28;20426;-75
2022/08/13 01:43:31;;;;;;;7.85;5.32;;;;;;;;;;5058201;28;20500;-75
2022/08/13 01:46:00;;;;;;;6.88;5.20;;;19.00;99.90;;;;;;5068827;28;20417;-75
2022/08/13 01:51:18;;;;;;;7.60;5.10;;;18.60;99.90;;;;;;5063168;28;20423;-75
2022/08/13 01:53:46;;;;;;;11.27;5.43;;;;;;;;;;5085164;28;20432;-75
2022/08/13 01:56:16;;;;;;;10.20;5.30;;;;;;;;;;5069317;28;21064;-74
2022/08/13 01:58:43;;;;;;;8.60;5.38;;;18.90;99.90;;;;;;5069443;28;20456;-75
2022/08/13 02:01:08;;;;;;;8.02;5.47;;;18.80;99.90;;;;;;5072792;28;20422;-75
2022/08/13 02:03:34;;;;;;;8.20;5.43;;;18.80;99.90;;;;;;5090473;28;20418;-75
2022/08/13 02:06:01;;;;;;;7.33;5.40;;;;;;;;;;5088442;28;20475;-75
2022/08/13 02:08:27;;;;;;;7.82;5.18;;;;;;;;;;5072797;28;20426;-75
2022/08/13 02:10:54;;;;;;;8.35;5.07;;;18.70;99.90;;;;;;5071939;28;20413;-75
2022/08/13 02:13:23;;;;;;;8.40;5.80;;;18.90;99.90;;;;;;5088825;28;20974;-75
2022/08/13 02:15:49;;;;;;;7.70;5.60;;;18.90;99.90;;;;;;5104834;28;20418;-75
2022/08/13 02:18:18;;;;;;;6.28;4.97;;;18.80;99.90;;;;;;5074164;28;20409;-75
2022/08/13 02:20:52;;;;;;;7.43;5.22;;;18.70;99.90;;;;;;5074041;28;20524;-75
2022/08/13 02:23:22;;;;;;;8.10;5.18;;;18.50;99.90;;;;;;5070867;28;20418;-75
2022/08/13 02:25:48;;;;;;;7.63;4.95;;;;;;;;;;5087322;28;20414;-75
2022/08/13 02:28:15;;;;;;;7.10;5.20;;;;;;;;;;5086159;28;20422;-75
2022/08/13 02:30:43;;;;;;;8.25;5.15;;;18.60;99.90;;;;;;5072322;28;20422;-75
2022/08/13 02:33:10;;;;;;;6.75;5.07;;;;;;;;;;5105524;28;20504;-75
2022/08/13 02:35:36;;;;;;;6.55;5.15;;;18.60;99.90;;;;;;5089099;28;20428;-75
2022/08/13 02:38:03;;;;;;;8.70;5.37;;;;;;;;;;5105033;28;20868;-75
2022/08/13 02:43:13;;;;;;;9.25;5.72;;;18.40;99.90;;;;;;5099827;28;20763;-74
2022/08/13 02:45:39;;;;;;;7.22;5.22;;;18.50;99.90;;;;;;5087906;28;20425;-75
2022/08/13 02:48:06;;;;;;;7.60;5.03;;;18.50;99.90;;;;;;5101696;28;20424;-75
2022/08/13 02:50:33;;;;;;;6.37;5.00;;;18.60;99.90;;;;;;5056910;28;20754;-75
2022/08/13 02:52:59;;;;;;;7.70;5.00;;;18.50;99.90;;;;;;5104101;28;21120;-75
2022/08/13 02:55:29;;;;;;;7.53;5.25;;;18.30;99.90;;;;;;5071043;28;22212;-75
2022/08/13 02:57:55;;;;;;;7.05;5.00;;;;;;;;;;5087632;28;20433;-75
2022/08/13 03:00:21;;;;;;;8.57;5.68;;;18.60;99.90;;;;;;5072564;28;20480;-75
2022/08/13 03:02:48;;;;;;;7.95;5.20;;;;;;;;;;5056552;28;20910;-75
2022/08/13 03:05:15;;;;;;;7.40;5.00;;;;;;;;;;5068698;28;20786;-75
2022/08/13 03:07:43;;;;;;;8.43;5.57;;;18.60;99.90;;;;;;5090012;28;20514;-75
2022/08/13 03:10:12;;;;;;;9.40;5.75;;;18.40;99.90;;;;;;5054976;28;20422;-75
2022/08/13 03:12:43;;;;;;;7.10;5.70;;;;;;;;;;5105032;28;20482;-75
2022/08/13 03:15:14;;;;;;;9.17;6.00;;;18.20;99.90;;;;;;5069858;28;20921;-75
2022/08/13 03:17:41;;;;;;;7.15;5.63;;;;;;;;;;5072767;28;20754;-75
2022/08/13 03:20:09;;;;;;;7.47;6.17;;;18.00;99.90;;;;;;5088837;28;20505;-75
2022/08/13 03:22:53;;;;;;;8.98;6.13;;;;;;;;;;5069814;28;20573;-75
2022/08/13 03:25:21;;;;;;;7.00;5.70;;;18.00;99.90;;;;;;5070363;28;20416;-75
2022/08/13 03:27:48;;;;;;;8.18;5.80;;;18.00;99.90;;;;;;5103564;28;20414;-75
2022/08/13 03:30:16;;;;;;;8.67;5.77;;;18.00;99.90;;;;;;5104810;28;20421;-75
2022/08/13 03:32:45;;;;;;;9.50;5.72;;;17.80;99.90;;;;;;5105078;28;20949;-75
2022/08/13 03:35:13;;;;;;;6.57;5.88;;;18.10;99.90;;;;;;5085615;28;20600;-74
2022/08/13 03:37:40;;;;;;;8.25;6.10;;;17.90;99.90;;;;;;5104572;28;20478;-74
2022/08/13 03:40:06;;;;;;;8.73;6.07;;;;;;;;;;5071540;28;20982;-75
2022/08/13 03:42:32;;;;;;;9.10;5.70;;;17.90;99.90;;;;;;5070868;28;20422;-75
2022/08/13 03:44:58;;;;;;;9.43;5.80;;;17.50;99.90;;;;;;5054198;28;20409;-75
2022/08/13 03:47:24;;;;;;;10.60;5.80;;;;;;;;;;5086238;28;20470;-75
2022/08/13 03:49:50;;;;;;;10.73;5.97;;;;;;;;;;5071081;28;20506;-75
2022/08/13 03:52:16;;;;;;;8.07;5.80;;;17.80;99.90;;;;;;5085434;28;20416;-74
2022/08/13 03:54:42;;;;;;;8.80;5.43;;;17.70;99.90;;;;;;5075058;28;20422;-75
2022/08/13 03:57:08;;;;;;;7.23;5.47;;;17.80;99.90;;;;;;5074464;28;20570;-75
2022/08/13 03:59:33;;;;;;;7.87;6.17;;;17.70;99.90;;;;;;5073240;28;20975;-74
2022/08/13 04:02:01;;;;;;;10.00;6.30;;;17.50;99.90;;;;;;5074748;28;20417;-75
2022/08/13 04:04:28;;;;;;;9.65;6.25;;;17.60;99.90;;;;;;5074642;28;20441;-75
2022/08/13 04:06:54;;;;;;;8.88;5.72;;;;;;;;;;5107487;28;20461;-74
2022/08/13 04:09:20;;;;;;;7.85;5.78;;;17.40;99.90;;;;;;5092042;28;20544;-74
2022/08/13 04:11:46;;;;;;;10.43;6.13;;;;;;;;;;5091336;28;20436;-75
2022/08/13 04:14:12;;;;;;;7.93;6.20;;;17.30;99.90;;;;;;5072511;28;20927;-75
2022/08/13 04:16:40;;;;;;;8.93;6.10;;;17.50;99.90;;;;;;5089128;28;20820;-75
2022/08/13 04:19:06;;;;;;;8.05;6.10;;;;;;;;;;5089900;28;20455;-75
2022/08/13 04:21:33;;;;;;;9.30;6.20;;;17.50;99.90;;;;;;5073216;28;20435;-73
2022/08/13 04:24:03;;;;;;;7.45;6.22;;;17.30;99.90;;;;;;5067793;28;20440;-74
2022/08/13 04:26:30;;;;;;;9.68;6.35;;;17.40;99.90;;;;;;5090183;28;20416;-74
2022/08/13 04:28:57;;;;;;;10.65;6.88;;;;;;;;;;5074309;28;20428;-74
2022/08/13 04:31:23;;;;;;;9.52;6.47;;;17.40;99.90;;;;;;5074099;28;20469;-74
2022/08/13 04:33:50;;;;;;;7.72;6.13;;;;;;;;;;5072415;28;20432;-74
2022/08/13 04:36:17;;;;;;;9.23;6.68;;;17.40;99.90;;;;;;5073052;28;20434;-74
2022/08/13 04:38:43;;;;;;;9.33;6.57;;;17.30;99.90;;;;;;5074599;28;20504;-75
2022/08/13 04:41:09;;;;;;;9.43;6.60;;;;;;;;;;5105108;28;21831;-75
2022/08/13 04:43:35;;;;;;;10.82;6.72;;;;;;;;;;5073849;28;20417;-76
2022/08/13 04:46:01;;;;;;;13.25;6.68;;;;;;;;;;5089856;28;20414;-75
2022/08/13 04:48:31;;;;;;;12.13;6.82;;;17.40;99.90;;;;;;5105826;28;20421;-75
2022/08/13 04:50:57;;;;;;;15.00;6.30;;;;;;;;;;5074289;28;20413;-75
2022/08/13 04:53:29;;;;;;;10.88;6.40;;;17.40;99.90;;;;;;5074589;28;20429;-75
2022/08/13 04:55:56;;;;;;;11.65;6.50;;;17.20;99.90;;;;;;5089709;28;20505;-75
2022/08/13 04:58:23;;;;;;;8.53;6.20;;;17.40;99.90;;;;;;5089598;28;20940;-75
2022/08/13 05:00:50;;;;;;;12.27;6.37;;;;;;;;;;5070439;28;20961;-75
2022/08/13 05:03:20;;;;;;;11.03;6.30;;;;;;;;;;5069103;28;20464;-75
2022/08/13 05:05:48;;;;;;;12.10;6.47;;;17.30;99.90;;;;;;5075443;28;20431;-74
2022/08/13 05:08:15;;;;;;;12.27;6.10;;;;;;;;;;5073374;28;20418;-74
2022/08/13 05:10:45;;;;;;;11.50;5.90;;;17.30;99.90;;;;;;5071122;28;20433;-74
2022/08/13 05:13:29;;;;;;;11.10;5.95;;;17.70;99.90;;;;;;5085837;28;20417;-74
2022/08/13 05:16:01;;;;;;;10.65;5.90;;;17.50;99.90;;;;;;5071895;28;20426;-74
2022/08/13 05:18:29;;;;;;;7.75;5.70;;;17.80;99.90;;;;;;5068275;28;20924;-74
2022/08/13 05:21:00;;;;;;;9.95;6.05;;;;;;;;;;5083524;28;20420;-74
2022/08/13 05:23:26;;;;;;;10.55;5.93;;;17.90;99.90;;;;;;5066041;28;20921;-74
2022/08/13 05:25:52;;;;;;;13.13;5.78;;;17.80;99.90;;;;;;5072893;28;20949;-74
2022/08/13 05:28:18;;;;;;;11.75;5.97;;;18.00;99.90;;;;;;5107546;28;20406;-74
2022/08/13 05:30:48;;;;;;;12.15;5.65;;;18.10;99.90;;;;;;5074983;28;20749;-74
2022/08/13 05:33:18;;;;;;;10.05;5.75;;;;;;;;;;5069627;28;20511;-74
2022/08/13 05:35:46;;;;;;;9.75;5.70;;;18.10;99.90;;;;;;5069876;28;20422;-74
2022/08/13 05:38:13;;;;;;;9.50;5.50;;;;;;;;;;5104083;28;20421;-74
2022/08/13 05:40:39;;;;;;;9.77;5.15;;;18.30;99.90;;;;;;5091324;28;20422;-74
2022/08/13 05:43:36;;;;;;;8.93;4.70;;;18.50;99.90;;;;;;5071241;28;20433;-74
2022/08/13 05:46:05;;;;;;;8.03;5.00;;;18.60;99.90;;;;;;5074680;28;20531;-74
2022/08/13 05:48:38;;;;;;;8.00;4.93;;;18.60;99.90;;;;;;5102674;28;20425;-74
2022/08/13 05:51:07;;;;;;;8.02;4.65;;;;;;;;;;5106917;28;20624;-74
2022/08/13 05:53:35;;;;;;;6.95;4.68;;;;;;;;;;5102202;28;20453;-74
2022/08/13 05:56:02;;;;;;;6.97;4.37;;;19.10;99.90;;;;;;5108332;28;20743;-74
2022/08/13 05:58:28;;;;;;;6.53;4.38;;;19.40;99.90;;;;;;5056357;28;20428;-74
2022/08/13 06:03:38;;;;;;;7.57;4.38;;;;;;;;;;5070738;28;20723;-73
2022/08/13 06:06:08;;;;;;;9.50;4.15;;;;;;;;;;5071955;28;20486;-74
2022/08/13 06:08:36;;;;;;;8.52;4.43;;;20.10;99.90;;;;;;5089129;28;20424;-74
2022/08/13 06:11:08;;;;;;;5.97;4.00;;;20.00;99.90;;;;;;5072300;28;20910;-74
2022/08/13 06:13:38;;;;;;;6.63;4.00;;;20.30;99.90;;;;;;5069513;28;20414;-74
2022/08/13 06:16:06;;;;;;;6.90;3.80;;;20.60;99.90;;;;;;5070620;28;20743;-73
2022/08/13 06:18:35;;;;;;;9.40;4.13;;;20.40;99.90;;;;;;5072637;28;20919;-74
2022/08/13 06:21:06;;;;;;;8.43;3.50;;;20.70;99.90;;;;;;5069580;28;20423;-74
2022/08/13 06:23:34;;;;;;;6.13;3.60;;;20.80;99.90;;;;;;5087688;28;20418;-74
2022/08/13 06:26:02;;;;;;;6.30;3.78;;;20.70;99.90;;;;;;5072436;28;20467;-74
2022/08/13 06:28:31;;;;;;;5.97;3.30;;;20.80;99.90;;;;;;5089613;28;20401;-74
2022/08/13 06:31:07;;;;;;;6.13;3.43;;;21.10;99.90;;;;;;5071922;28;20508;-74
2022/08/13 06:33:36;;;;;;;4.47;3.10;;;21.30;99.90;;;;;;5070215;28;20499;-74
2022/08/13 06:36:04;;;;;;;8.38;3.20;;;21.30;99.90;;;;;;5071609;28;20430;-74
2022/08/13 06:38:40;;;;;;;8.50;3.65;;;21.40;99.90;;;;;;5071366;28;20418;-73
2022/08/13 06:41:07;;;;;;;6.50;3.22;;;21.40;99.90;;;;;;5070808;28;20426;-74
2022/08/13 06:43:47;;;;;;;6.65;3.10;;;21.80;99.90;;;;;;5072374;28;20819;-74
2022/08/13 06:46:15;;;;;;;6.78;3.22;;;21.60;99.90;;;;;;5090270;28;20459;-74
2022/08/13 06:48:41;;;;;;;7.43;3.03;;;22.10;99.90;;;;;;5065419;28;20422;-74
2022/08/13 06:51:10;;;;;;;7.55;3.05;;;21.90;99.90;;;;;;5072790;28;20437;-74
2022/08/13 06:53:38;;;;;;;6.45;3.05;;;22.40;99.90;;;;;;5106546;28;20428;-73
2022/08/13 06:56:07;;;;;;;5.63;2.80;;;22.20;99.90;;;;;;5072529;28;20788;-74
2022/08/13 06:58:34;;;;;;;7.25;2.95;;;22.80;99.90;;;;;;5070918;28;20431;-74
2022/08/13 07:01:01;;;;;;;5.67;2.50;;;22.60;99.90;;;;;;5088947;28;20422;-74
2022/08/13 07:03:28;;;;;;;9.85;2.60;;;22.90;99.90;;;;;;5071236;28;20586;-74
2022/08/13 07:05:58;;;;;;;7.40;2.83;;;25.50;99.90;;;;;;5073265;28;20405;-74
2022/08/13 07:08:29;;;;;;;5.93;2.42;;;22.90;99.90;;;;;;5071786;28;20924;-74
2022/08/13 07:13:43;;;;;;;5.40;2.57;;;23.40;99.90;;;;;;5071040;28;20454;-74
2022/08/13 07:16:11;;;;;;;6.13;2.67;;;23.60;99.90;;;;;;5073279;28;20664;-74
2022/08/13 07:18:37;;;;;;;6.55;2.53;;;23.50;99.90;;;;;;5070415;28;21174;-74
2022/08/13 07:21:11;;;;;;;6.68;2.80;;;23.50;99.90;;;;;;5071611;28;20516;-74
2022/08/13 07:23:41;;;;;;;8.73;2.60;;;23.80;99.90;;;;;;5072633;28;20755;-75
2022/08/13 07:26:08;;;;;;;5.60;2.30;;;23.80;99.90;;;;;;5090206;28;20422;-75
2022/08/13 07:28:35;;;;;;;4.30;2.40;;;23.90;99.90;;;;;;5057387;28;20421;-74
2022/08/13 07:31:05;;;;;;;5.50;2.53;;;24.40;99.90;;;;;;5068014;28;20905;-75
2022/08/13 07:33:34;;;;;;;6.10;2.40;;;24.50;99.90;;;;;;5109632;28;20970;-74
2022/08/13 07:36:04;;;;;;;5.72;2.40;;;24.20;99.90;;;;;;5087031;28;20428;-75
2022/08/13 07:38:31;;;;;;;5.22;2.40;;;24.60;99.90;;;;;;5056744;28;21028;-74
2022/08/13 07:41:00;;;;;;;8.25;2.40;;;24.70;99.90;;;;;;5102085;28;20920;-75
2022/08/13 07:43:27;;;;;;;4.05;2.28;;;25.00;99.90;;;;;;5073916;28;20422;-74
2022/08/13 07:46:05;;;;;;;5.72;2.33;;;25.30;99.90;;;;;;5107673;28;20421;-75
2022/08/13 07:48:32;;;;;;;6.13;2.25;;;25.00;99.90;;;;;;5094494;28;20410;-75
2022/08/13 07:51:00;;;;;;;3.78;2.15;;;25.00;99.90;;;;;;5056706;28;20774;-74
2022/08/13 07:53:28;;;;;;;5.05;2.28;;;25.30;99.90;;;;;;5047099;28;20724;-78
2022/08/13 07:55:54;;;;;;;4.57;2.30;;;25.40;99.90;;;;;;5107202;28;20426;-75
2022/08/13 07:58:23;;;;;;;7.25;2.58;;;25.60;99.90;;;;;;5074889;28;20429;-75
2022/08/13 08:00:49;;;;;;;7.03;2.30;;;25.70;99.90;;;;;;5072566;28;20570;-75
2022/08/13 08:03:16;;;;;;;4.43;2.10;;;26.00;99.90;;;;;;5108954;28;20505;-75
2022/08/13 08:05:44;;;;;;;3.60;2.10;;;26.00;99.90;;;;;;5090496;28;20439;-75
2022/08/13 08:08:13;;;;;;;3.90;2.10;;;26.00;99.90;;;;;;5075636;28;20401;-75
2022/08/13 08:10:42;;;;;;;5.30;2.00;;;26.30;99.90;;;;;;5075207;28;20469;-75
2022/08/13 08:13:13;;;;;;;4.03;1.88;;;26.20;99.90;;;;;;5072569;28;20457;-75
2022/08/13 08:15:45;;;;;;;5.43;2.15;;;26.50;99.90;;;;;;5092553;28;20423;-75
2022/08/13 08:18:12;;;;;;;8.60;2.00;;;26.60;99.90;;;;;;5074033;28;20421;-75
2022/08/13 08:20:38;;;;;;;5.18;2.00;;;26.60;99.90;;;;;;5070836;28;20941;-74
2022/08/13 08:23:04;;;;;;;6.88;1.88;;;26.90;99.90;;;;;;5074452;28;20487;-76
2022/08/13 08:25:31;;;;;;;3.83;1.83;;;26.80;99.90;;;;;;5078547;28;20410;-75
2022/08/13 08:27:56;;;;;;;5.03;2.10;;;26.70;99.90;;;;;;5069877;28;20450;-75
2022/08/13 08:30:22;;;;;;;6.93;1.90;;;27.10;99.90;;;;;;5082894;28;20941;-75
2022/08/13 08:32:53;;;;;;;3.47;1.88;;;27.00;99.90;;;;;;5080411;28;20743;-75
2022/08/13 08:35:23;;;;;;;4.90;1.80;;;27.50;99.90;;;;;;5050683;28;20429;-76
2022/08/13 08:43:34;;;;;;;3.42;1.80;;;27.60;99.50;;;;;;5094485;28;20501;-76
2022/08/13 08:46:05;;;;;;;4.25;1.92;;;28.10;99.90;;;;;;5075710;28;20400;-76
2022/08/13 08:48:32;;;;;;;3.88;1.80;;;28.00;99.60;;;;;;5075069;28;20446;-76
2022/08/13 08:51:00;;;;;;;4.82;1.80;;;28.00;98.80;;;;;;5055873;28;20747;-76
2022/08/13 08:53:29;;;;;;;3.40;1.80;;;28.30;99.20;;;;;;5072526;28;20421;-76
2022/08/13 08:55:55;;;;;;;6.93;1.70;;;28.50;99.10;;;;;;5057331;28;20421;-75
2022/08/13 08:58:22;;;;;;;4.22;1.67;;;28.40;97.90;;;;;;5074306;28;20421;-76
2022/08/13 09:00:49;;;;;;;4.75;1.70;;;28.70;97.70;;;;;;5074689;28;20433;-76
2022/08/13 09:03:18;;;;;;;5.13;1.80;;;28.50;97.40;;;;;;5106860;28;20917;-76
2022/08/13 09:05:48;;;;;;;6.78;1.70;;;28.80;97.70;;;;;;5107734;28;20430;-76
2022/08/13 09:08:18;;;;;;;6.22;1.70;;;28.60;97.40;;;;;;5074387;28;20444;-76
2022/08/13 09:10:48;;;;;;;3.85;1.70;;;29.00;96.90;;;;;;5056078;28;20457;-76
2022/08/13 09:13:19;;;;;;;5.63;1.70;;;28.70;97.00;;;;;;5105140;28;20421;-76
2022/08/13 09:15:48;;;;;;;4.53;1.77;;;28.70;96.70;;;;;;5046687;28;20849;-75
2022/08/13 09:18:17;;;;;;;3.55;1.70;;;29.10;96.90;;;;;;5071531;28;20925;-76
2022/08/13 09:20:42;;;;;;;4.95;1.50;;;29.60;96.60;;;;;;5069361;28;20446;-75
2022/08/13 09:23:14;;;;;;;3.60;1.60;;;29.60;96.70;;;;;;5074218;28;21089;-75
2022/08/13 09:25:43;;;;;;;4.65;1.77;;;29.20;96.10;;;;;;5079309;28;20488;-75
2022/08/13 09:28:10;;;;;;;5.60;1.85;;;28.60;95.70;;;;;;5068891;28;20422;-74
2022/08/13 09:30:37;;;;;;;5.70;1.60;;;29.00;95.40;;;;;;5058192;28;20818;-75
2022/08/13 09:33:03;;;;;;;5.70;1.63;;;29.00;95.90;;;;;;5069618;28;20404;-75
2022/08/13 09:35:31;;;;;;;4.65;1.60;;;29.20;95.50;;;;;;5072709;28;20424;-75
2022/08/13 09:37:58;;;;;;;5.22;1.70;;;29.40;95.30;;;;;;5073350;28;20422;-76
2022/08/13 09:40:26;;;;;;;7.28;1.65;;;29.10;94.90;;;;;;5074359;28;20422;-75
2022/08/13 09:43:07;;;;;;;5.57;1.80;;;29.50;95.40;;;;;;5070880;28;20414;-75
2022/08/13 09:45:35;;;;;;;5.38;1.70;;;29.50;94.60;;;;;;5074083;28;20428;-75
2022/08/13 09:48:05;;;;;;;6.13;1.60;;;29.50;94.10;;;;;;5056967;28;20723;-75
2022/08/13 09:50:30;;;;;;;4.50;1.70;;;29.40;94.60;;;;;;5069495;28;20766;-75
2022/08/13 09:52:56;;;;;;;4.30;1.80;;;29.50;94.60;;;;;;5065232;28;20422;-75
2022/08/13 09:55:25;;;;;;;3.90;1.70;;;30.20;94.80;;;;;;5054800;28;20461;-75
2022/08/13 09:57:59;;;;;;;7.57;1.70;;;30.40;94.40;;;;;;5071965;28;20429;-75
2022/08/13 10:00:28;;;;;;;4.93;1.80;;;29.50;93.70;;;;;;5057598;28;20936;-75
2022/08/13 10:02:59;;;;;;;4.38;1.70;;;29.70;94.00;;;;;;5064661;28;20620;-75
2022/08/13 10:05:32;;;;;;;4.07;1.50;;;30.00;94.20;;;;;;5083650;28;20423;-75
2022/08/13 10:07:59;;;;;;;5.85;1.67;;;30.20;93.50;;;;;;5083717;28;20418;-75
2022/08/13 10:10:26;;;;;;;9.68;1.90;;;30.40;94.10;;;;;;5072128;28;20935;-75
2022/08/13 10:12:52;;;;;;;5.78;1.88;;;30.00;93.70;;;;;;5106340;28;20418;-75
2022/08/13 10:15:18;;;;;;;4.57;1.70;;;29.90;93.40;;;;;;5071980;28;20433;-74
2022/08/13 10:17:51;;;;;;;5.07;1.90;;;29.90;93.70;;;;;;5081010;28;20524;-74
2022/08/13 10:20:21;;;;;;;6.13;1.80;;;29.50;93.00;;;;;;5067791;28;20828;-75
2022/08/13 10:22:48;;;;;;;4.22;1.85;;;30.00;94.10;;;;;;5069969;28;20413;-74
2022/08/13 11:48:59;;;;;;;5.30;1.80;;;31.50;91.60;;;;;;6149883;22;1988388;-77
2022/08/13 11:51:25;;;;;;;4.25;1.80;;;32.10;90.80;;;;;;6215992;23;20373;-76
2022/08/13 11:53:51;;;;;;;3.43;1.90;;;31.50;90.60;;;;;;6224232;23;20690;-76
2022/08/13 11:56:17;;;;;;;6.00;1.90;;;31.80;90.80;;;;;;6222547;23;20397;-76
2022/08/13 11:58:43;;;;;;;2.83;1.70;;;32.00;90.50;;;;;;6225362;23;20397;-76
2022/08/13 12:01:08;;;;;;;3.42;1.70;;;31.30;89.50;;;;;;6222682;23;20369;-76
2022/08/13 12:03:35;;;;;;;6.13;1.83;;;31.70;89.70;;;;;;6252040;23;20364;-76
2022/08/13 12:06:02;;;;;;;2.83;1.60;;;31.60;90.00;;;;;;6223759;23;20419;-76
2022/08/13 12:08:29;;;;;;;2.95;1.90;;;31.20;89.20;;;;;;6197686;23;20369;-76
2022/08/13 12:10:55;;;;;;;4.37;1.60;;;31.80;89.10;;;;;;6224031;23;20445;-76
2022/08/13 12:13:21;;;;;;;4.43;1.75;;;31.50;88.50;;;;;;6198116;23;20401;-77
2022/08/13 12:15:46;;;;;;;4.00;1.90;;;31.90;88.20;;;;;;6225236;23;20372;-75
2022/08/13 12:18:13;;;;;;;3.17;1.80;;;31.80;87.70;;;;;;6224131;23;20389;-76
2022/08/13 12:20:39;;;;;;;5.13;1.67;;;32.00;87.90;;;;;;6223480;23;20361;-76
2022/08/13 12:23:07;;;;;;;2.05;1.52;;;32.10;86.30;;;;;;6248289;23;20389;-75
2022/08/13 12:25:33;;;;;;;3.40;1.58;;;32.10;86.60;;;;;;6225580;23;20420;-75
2022/08/13 12:28:25;;;;;;;3.67;1.65;;;31.60;86.20;;;;;;6199983;23;20369;-76
2022/08/13 12:30:53;;;;;;;4.05;1.58;;;32.30;85.60;;;;;;6225685;23;20738;-74
2022/08/13 12:33:20;;;;;;;3.88;1.75;;;32.30;87.10;;;;;;6197236;23;20375;-75
2022/08/13 12:35:46;;;;;;;3.92;1.80;;;32.20;86.10;;;;;;6227426;23;20372;-75
2022/08/13 12:38:13;;;;;;;3.40;1.60;;;32.60;86.90;;;;;;6201765;23;20389;-75
2022/08/13 12:40:41;;;;;;;3.10;1.63;;;32.50;86.30;;;;;;6226048;23;20518;-74
2022/08/13 12:43:07;;;;;;;4.53;1.60;;;32.80;86.80;;;;;;6201401;23;20835;-74
2022/08/13 12:45:36;;;;;;;3.30;1.77;;;32.40;87.80;;;;;;6199527;23;20373;-74
2022/08/13 12:48:20;;;;;;;4.80;1.70;;;32.10;86.60;;;;;;6222132;23;20445;-75
2022/08/13 12:50:47;;;;;;;4.15;1.88;;;32.20;86.70;;;;;;6217223;23;20512;-75
2022/08/13 12:53:15;;;;;;;3.60;1.80;;;32.30;86.90;;;;;;6213564;23;20370;-75
2022/08/13 12:55:42;;;;;;;4.43;1.80;;;32.10;86.70;;;;;;6216861;23;20441;-75
2022/08/13 12:58:12;;;;;;;3.15;1.80;;;32.50;86.40;;;;;;6217435;23;20390;-76
2022/08/13 13:00:38;;;;;;;3.75;1.73;;;32.50;87.30;;;;;;6218518;23;20420;-76
2022/08/13 13:03:03;;;;;;;3.63;1.67;;;32.00;85.90;;;;;;6213886;23;20827;-76
2022/08/13 13:05:30;;;;;;;4.38;1.80;;;31.90;86.40;;;;;;6215744;23;20421;-75
2022/08/13 13:07:57;;;;;;;2.97;1.60;;;32.50;87.00;;;;;;6218065;23;20431;-77
2022/08/13 13:10:23;;;;;;;3.50;1.70;;;32.10;85.80;;;;;;6166795;23;20912;-76
2022/08/13 13:12:48;;;;;;;3.90;1.70;;;31.80;85.70;;;;;;6215707;23;20380;-77
2022/08/13 13:15:14;;;;;;;4.18;1.77;;;32.80;85.60;;;;;;6192302;23;20366;-76
2022/08/13 13:17:40;;;;;;;4.67;1.90;;;32.50;85.40;;;;;;6218401;23;20397;-75
2022/08/13 13:20:08;;;;;;;3.42;1.70;;;32.20;85.90;;;;;;6192311;23;20437;-75
2022/08/13 13:22:35;;;;;;;3.40;1.80;;;32.80;84.80;;;;;;6217731;23;20362;-76
2022/08/13 13:25:00;;;;;;;4.00;1.75;;;32.50;84.90;;;;;;6216749;23;20449;-76
2022/08/13 13:27:27;;;;;;;2.70;1.80;;;32.70;85.20;;;;;;6242634;23;20386;-76
2022/08/13 13:29:53;;;;;;;5.03;2.03;;;33.20;84.70;;;;;;6217579;23;20392;-77
2022/08/13 13:32:18;;;;;;;4.30;1.70;;;32.70;84.40;;;;;;6192968;23;20835;-77
2022/08/13 13:34:44;;;;;;;4.57;1.60;;;32.50;83.50;;;;;;6216961;23;20373;-75
2022/08/13 13:37:14;;;;;;;3.33;1.80;;;32.20;84.60;;;;;;6215512;23;20390;-75
2022/08/13 13:39:40;;;;;;;3.45;1.80;;;32.50;83.80;;;;;;6217214;23;20665;-75
2022/08/13 13:42:06;;;;;;;4.72;1.80;;;31.70;86.00;;;;;;6216974;23;20366;-75
2022/08/13 13:44:32;;;;;;;4.80;1.60;;;32.10;86.00;;;;;;6243402;23;20467;-76
2022/08/13 13:46:58;;;;;;;4.68;1.80;;;31.60;85.20;;;;;;6216281;23;20475;-75
2022/08/13 13:49:24;;;;;;;3.00;1.70;;;31.40;85.60;;;;;;6226198;23;20933;-75
2022/08/13 13:51:51;;;;;;;3.57;1.93;;;31.40;86.10;;;;;;6241037;23;20396;-75
2022/08/13 13:54:17;;;;;;;6.93;2.08;;;31.60;86.30;;;;;;6240036;23;20858;-75
2022/08/13 13:56:43;;;;;;;3.43;1.87;;;31.60;86.80;;;;;;6239567;23;20385;-75
2022/08/13 13:59:09;;;;;;;6.17;2.30;;;32.10;86.90;;;;;;6241388;22;20361;-76
2022/08/13 14:01:34;;;;;;;3.55;1.80;;;31.90;86.60;;;;;;6239244;23;20366;-75
2022/08/13 14:04:00;;;;;;;4.87;2.10;;;31.90;87.30;;;;;;6240730;23;20676;-76
2022/08/13 14:06:26;;;;;;;4.63;1.80;;;31.80;86.90;;;;;;6241274;23;20453;-77
2022/08/13 14:08:52;;;;;;;4.93;2.00;;;31.50;87.40;;;;;;6214719;23;20831;-76
2022/08/13 14:11:19;;;;;;;4.05;2.05;;;31.50;88.00;;;;;;6242758;23;20358;-77
2022/08/13 14:13:45;;;;;;;4.40;1.80;;;31.50;87.80;;;;;;6217642;23;20445;-75
2022/08/13 14:16:14;;;;;;;3.40;1.88;;;31.10;88.60;;;;;;6216684;23;20455;-76
2022/08/13 14:18:42;;;;;;;3.72;2.00;;;31.60;88.90;;;;;;6245801;22;20732;-76
2022/08/13 14:21:08;;;;;;;3.75;1.90;;;31.60;88.00;;;;;;6243019;23;20366;-75
2022/08/13 14:23:36;;;;;;;3.95;2.10;;;31.80;88.20;;;;;;6240860;23;20445;-75
2022/08/13 14:26:04;;;;;;;5.00;1.98;;;29.40;86.40;;;;;;6191912;23;20803;-76
2022/08/13 14:28:31;;;;;;;4.03;2.05;;;31.40;88.00;;;;;;6215334;23;20561;-77
2022/08/13 14:30:58;;;;;;;4.75;1.90;;;31.50;88.00;;;;;;6240808;23;20369;-77
2022/08/13 14:33:26;;;;;;;5.00;2.20;;;31.50;88.40;;;;;;6241580;23;20770;-76
2022/08/13 14:35:52;;;;;;;4.80;2.00;;;31.90;88.30;;;;;;6242234;23;20451;-77
2022/08/13 14:38:18;;;;;;;4.47;1.90;;;31.60;87.90;;;;;;6240575;23;20386;-76
2022/08/13 14:40:44;;;;;;;4.25;2.05;;;31.90;88.60;;;;;;6242263;23;20820;-77
2022/08/13 14:43:10;;;;;;;4.75;2.00;;;31.70;88.60;;;;;;6239450;23;20367;-77
2022/08/13 14:45:42;;;;;;;4.20;2.10;;;31.60;87.80;;;;;;6240463;23;20493;-77
2022/08/13 14:48:16;;;;;;;2.33;1.90;;;31.70;87.70;;;;;;6240535;22;20707;-77
2022/08/13 14:51:03;;;;;;;3.40;2.00;;;32.10;87.40;;;;;;6214427;23;20881;-77